Sst Aimore — PO3737 — position and weather

sailwx.info

Track history (hours):
 
Tides and Currents Weather Stations Pressure Air Temp Water Temp Dewpoint Dewpoint Depression Visibility Wind Speed Wind Dir Waves Ship Positions

Sst Aimore

Last reported at 2017-Dec-15 10:04 UTC. Time now 2017-Dec-16 03:42 UTC.
Position S 23°58' W 046°18'.

Length 25 m.

Type: Ship. MMSI: 710032570.

Date/timePositionNaut miles runAvg speedWind from/ knotsBaromVisibWave heightAir tempDewpointWater temp
2017-Dec-15 10:04S 23°58' W 046°18'0 7.8
2017-Dec-15 10:00S 23°58' W 046°18'2 3.4
2017-Dec-15 09:30S 23°60' W 046°19'1 1.4
2017-Dec-15 08:57S 23°60' W 046°18'0 0.0
2017-Dec-15 08:30S 23°60' W 046°18'3 2.4
2017-Dec-15 07:04S 23°56' W 046°19'2 7.5
2017-Dec-15 06:51S 23°58' W 046°18'0 0.5
2017-Dec-15 06:29S 23°58' W 046°18'0 0.6
2017-Dec-15 05:55S 23°58' W 046°18'0 0.0
2017-Dec-15 05:23S 23°58' W 046°18'0 0.0
2017-Dec-15 04:59S 23°58' W 046°18'0 0.0
2017-Dec-15 03:55S 23°58' W 046°18'2 0.9
2017-Dec-15 02:17S 23°60' W 046°18'1 0.9
2017-Dec-15 00:57S 23°58' W 046°18'0 0.0
2017-Dec-15 00:29S 23°58' W 046°18'1 0.2
2017-Dec-14 18:14S 23°60' W 046°18'0 0.0
2017-Dec-14 17:58S 23°60' W 046°18'0 0.0
2017-Dec-14 17:28S 23°60' W 046°18'0 0.0
2017-Dec-14 17:00S 23°60' W 046°18'0 0.0
2017-Dec-14 16:30S 23°60' W 046°18'0 0.0
2017-Dec-14 15:59S 23°60' W 046°18'0 0.0
2017-Dec-14 15:00S 23°60' W 046°18'0 0.0
2017-Dec-14 14:30S 23°60' W 046°18'0 0.0
2017-Dec-14 13:51S 23°60' W 046°18'0 0.0
2017-Dec-14 13:29S 23°60' W 046°18'0 0.0
2017-Dec-14 12:53S 23°60' W 046°18'0 0.0
2017-Dec-14 12:30S 23°60' W 046°18'0 0.0
2017-Dec-14 11:51S 23°60' W 046°18'0 0.0
2017-Dec-14 11:29S 23°60' W 046°18'0 0.7
2017-Dec-14 11:00S 23°59' W 046°18'0 0.0
2017-Dec-14 01:27S 23°59' W 046°18'2 4.2
2017-Dec-14 01:00S 23°60' W 046°20'2 0.6
2017-Dec-13 21:20S 23°58' W 046°18'0 0.0
2017-Dec-13 21:00S 23°58' W 046°18'0 0.0
2017-Dec-13 20:30S 23°58' W 046°18'0 0.0
2017-Dec-13 19:58S 23°58' W 046°18'0 0.0
2017-Dec-13 19:30S 23°58' W 046°18'0 0.0
2017-Dec-13 18:54S 23°58' W 046°18'0 0.0
2017-Dec-13 18:30S 23°58' W 046°18'0 0.7
2017-Dec-13 17:59S 23°59' W 046°17'1 0.4
2017-Dec-13 15:14S 23°60' W 046°18'0 0.0
2017-Dec-13 15:00S 23°60' W 046°18'0 0.0
2017-Dec-13 14:27S 23°60' W 046°18'0 0.0
2017-Dec-13 13:56S 23°60' W 046°18'0 0.0
2017-Dec-13 13:29S 23°60' W 046°18'0 0.0
2017-Dec-13 12:58S 23°60' W 046°18'0 0.0
2017-Dec-13 12:21S 23°60' W 046°18'0 0.0
2017-Dec-13 11:58S 23°60' W 046°18'0 0.0
2017-Dec-13 11:25S 23°60' W 046°18'0 0.0
2017-Dec-13 11:00S 23°60' W 046°18'2 3.8
2017-Dec-13 10:30S 23°58' W 046°18'0 0.7
2017-Dec-13 09:51S 23°58' W 046°18'0 0.1
2017-Dec-13 09:27S 23°58' W 046°18'0 0.4
2017-Dec-13 08:54S 23°58' W 046°18'0 0.0
2017-Dec-13 08:30S 23°58' W 046°18'0 0.0
2017-Dec-13 07:05S 23°58' W 046°18'0 0.0
2017-Dec-13 07:00S 23°58' W 046°18'0 0.0
2017-Dec-13 06:29S 23°58' W 046°18'0 0.0
2017-Dec-13 05:59S 23°58' W 046°18'0 0.0
2017-Dec-13 05:30S 23°58' W 046°18'0 0.0
2017-Dec-13 03:11S 23°58' W 046°18'0 0.0
2017-Dec-13 03:00S 23°58' W 046°18'0 0.5
2017-Dec-13 02:28S 23°58' W 046°18'1 1.8
2017-Dec-13 01:51S 23°59' W 046°18'1 1.9
2017-Dec-13 01:23S 23°58' W 046°18'0 0.0
2017-Dec-13 01:00S 23°58' W 046°18'0 0.0
2017-Dec-13 00:28S 23°58' W 046°18'0 0.0
2017-Dec-13 00:00S 23°58' W 046°18'0 0.0
2017-Dec-12 23:30S 23°58' W 046°18'0 0.0
2017-Dec-12 22:54S 23°58' W 046°18'0 0.0
2017-Dec-12 21:59S 23°58' W 046°18'1 1.1
2017-Dec-12 21:30S 23°58' W 046°18'1 0.3
2017-Dec-12 16:35S 23°59' W 046°18'0 2.2
2017-Dec-12 16:27S 23°60' W 046°18'1 0.1
2017-Dec-12 04:55S 23°59' W 046°17'0 0.0
2017-Dec-12 03:52S 23°59' W 046°17'1 1.6
2017-Dec-12 03:28S 23°58' W 046°18'1 0.6
2017-Dec-12 01:52S 23°59' W 046°17'1 1.6
2017-Dec-12 01:27S 23°58' W 046°17'1 1.4
2017-Dec-12 01:00S 23°58' W 046°18'1 1.7
2017-Dec-12 00:29S 23°59' W 046°17'0 0.0
2017-Dec-12 00:00S 23°59' W 046°17'0 0.0
2017-Dec-11 23:29S 23°59' W 046°17'0 0.0
2017-Dec-11 23:00S 23°59' W 046°17'0 0.0
2017-Dec-11 22:30S 23°59' W 046°17'1 1.1
2017-Dec-11 21:44S 23°58' W 046°18'0 0.0
2017-Dec-11 15:34S 23°58' W 046°18'1 0.7
2017-Dec-11 14:15S 23°59' W 046°17'0 0.0
2017-Dec-11 13:52S 23°59' W 046°17'0 0.0
2017-Dec-11 13:30S 23°59' W 046°17'0 0.0
2017-Dec-11 11:45S 23°59' W 046°17'0 0.4
2017-Dec-11 11:17S 23°59' W 046°17'0 0.1
2017-Dec-11 10:59S 23°59' W 046°17'0 0.3
2017-Dec-11 10:20S 23°59' W 046°17'0 0.1
2017-Dec-11 09:58S 23°59' W 046°17'0 0.8
2017-Dec-11 09:30S 23°58' W 046°17'1 0.2
2017-Dec-11 05:09S 23°59' W 046°17'1 7.1
2017-Dec-11 05:00S 23°60' W 046°18'2 0.4
2017-Dec-10 23:54S 23°58' W 046°18'1 0.9
2017-Dec-10 22:39S 23°59' W 046°17'1 5.2
2017-Dec-10 22:30S 23°59' W 046°18'2 1.4
2017-Dec-10 20:47S 23°57' W 046°19'0 0.0
2017-Dec-10 19:54S 23°57' W 046°19'1 0.1
2017-Dec-10 11:28S 23°57' W 046°19'2 3.9
2017-Dec-10 10:57S 23°58' W 046°17'1 0.1
2017-Dec-10 02:09S 23°59' W 046°17'1 6.7
2017-Dec-10 02:00S 23°60' W 046°18'1 0.3
2017-Dec-10 00:13S 23°60' W 046°18'0 0.0
2017-Dec-09 23:56S 23°60' W 046°18'0 0.0
2017-Dec-09 23:30S 23°60' W 046°18'0 0.0
2017-Dec-09 22:58S 23°60' W 046°18'0 0.0
2017-Dec-09 22:09S 23°60' W 046°18'0 0.0
2017-Dec-09 21:56S 23°60' W 046°18'0 0.0
2017-Dec-09 21:21S 23°60' W 046°18'0 0.0
2017-Dec-09 21:00S 23°60' W 046°18'0 0.0
2017-Dec-09 20:29S 23°60' W 046°18'0 0.0
2017-Dec-09 19:50S 23°60' W 046°18'0 0.0
2017-Dec-09 19:30S 23°60' W 046°18'0 0.0
2017-Dec-09 18:54S 23°60' W 046°18'0 0.0
2017-Dec-09 18:27S 23°60' W 046°18'1 0.2
2017-Dec-09 15:22S 23°59' W 046°17'3 7.2
2017-Dec-09 15:00S 24°00' W 046°20'2 1.5
2017-Dec-09 13:21S 23°59' W 046°18'1 0.6
2017-Dec-09 11:55S 23°58' W 046°18'0 0.6
2017-Dec-09 11:30S 23°58' W 046°17'2 3.0
2017-Dec-09 10:59S 23°60' W 046°18'0 0.7
2017-Dec-09 10:30S 23°60' W 046°19'2 0.1
2017-Dec-08 14:15S 23°58' W 046°18'0 0.5
2017-Dec-08 13:56S 23°58' W 046°18'2 2.8
2017-Dec-08 13:17S 23°60' W 046°18'0 0.3
2017-Dec-08 12:02S 23°60' W 046°18'0 0.1
2017-Dec-08 11:58S 23°60' W 046°18'0 0.0
2017-Dec-08 11:28S 23°60' W 046°18'0 0.0
2017-Dec-08 09:09S 23°60' W 046°18'1 6.6
2017-Dec-08 08:57S 23°58' W 046°17'0 0.8
2017-Dec-08 08:30S 23°58' W 046°18'1 3.0
2017-Dec-08 08:00S 23°60' W 046°18'1 2.2
2017-Dec-08 07:30S 23°59' W 046°19'1 2.1
2017-Dec-08 06:56S 23°60' W 046°18'0 0.0
2017-Dec-08 04:25S 23°60' W 046°18'0 0.0
2017-Dec-08 03:40S 23°60' W 046°18'0 0.0
2017-Dec-08 03:27S 23°60' W 046°18'0 0.0
2017-Dec-08 03:00S 23°60' W 046°18'1 2.2
2017-Dec-08 02:25S 23°58' W 046°18'0 0.9
2017-Dec-08 02:00S 23°58' W 046°17'0 0.1
2017-Dec-07 23:33S 23°58' W 046°18'0 2.3
2017-Dec-07 23:28S 23°58' W 046°18'0 0.5
2017-Dec-07 23:00S 23°58' W 046°18'1 2.8
2017-Dec-07 22:30S 23°60' W 046°18'0 0.0
2017-Dec-07 22:00S 23°60' W 046°18'0 0.0
2017-Dec-07 21:28S 23°60' W 046°18'0 0.0
2017-Dec-07 20:59S 23°60' W 046°18'0 0.0
2017-Dec-07 20:30S 23°60' W 046°18'0 0.0
2017-Dec-07 19:58S 23°60' W 046°18'0 0.0
2017-Dec-07 19:13S 23°60' W 046°18'0 0.0
2017-Dec-07 19:00S 23°60' W 046°18'0 0.0
2017-Dec-07 17:53S 23°60' W 046°18'0 0.0
2017-Dec-07 17:21S 23°60' W 046°18'0 0.0
2017-Dec-07 16:45S 23°60' W 046°18'0 0.0
2017-Dec-07 16:27S 23°60' W 046°18'0 0.0
2017-Dec-07 15:58S 23°60' W 046°18'0 0.0
2017-Dec-07 15:27S 23°60' W 046°18'0 0.0
2017-Dec-07 14:54S 23°60' W 046°18'0 0.0
2017-Dec-07 14:28S 23°60' W 046°18'0 0.0
2017-Dec-07 14:00S 23°60' W 046°18'0 0.0
2017-Dec-07 13:28S 23°60' W 046°18'0 0.0
2017-Dec-07 12:58S 23°60' W 046°18'0 0.0
2017-Dec-07 12:30S 23°60' W 046°18'0 0.0
2017-Dec-07 12:00S 23°60' W 046°18'0 0.5
2017-Dec-07 11:30S 23°60' W 046°18'1 0.1
2017-Dec-07 05:19S 23°59' W 046°17'1 1.8
2017-Dec-07 04:58S 23°60' W 046°18'0 0.0
2017-Dec-07 04:20S 23°60' W 046°18'0 0.0
2017-Dec-07 03:54S 23°60' W 046°18'0 0.0
2017-Dec-07 02:54S 23°60' W 046°18'0 0.0
2017-Dec-07 02:24S 23°60' W 046°18'0 0.0
2017-Dec-07 01:56S 23°60' W 046°18'0 0.0
2017-Dec-07 01:26S 23°60' W 046°18'0 0.0
2017-Dec-07 00:58S 23°60' W 046°18'0 0.0
2017-Dec-06 23:33S 23°60' W 046°18'1 5.1
2017-Dec-06 23:27S 23°60' W 046°18'  
Track history (hours):
 
Tides and Currents Weather Stations Pressure Air Temp Water Temp Dewpoint Dewpoint Depression Visibility Wind Speed Wind Dir Waves Ship Positions

Sst Aimore

Last reported at 2017-Dec-15 10:04 UTC. Time now 2017-Dec-16 03:42 UTC.
Position S 23°58' W 046°18'.

Length 25 m.

Type: Ship. MMSI: 710032570.

Date/timePositionNaut miles runAvg speedWind from/ knotsBaromVisibWave heightAir tempDewpointWater temp
2017-Dec-15 10:04S 23°58' W 046°18'0 7.8
2017-Dec-15 10:00S 23°58' W 046°18'2 3.4
2017-Dec-15 09:30S 23°60' W 046°19'1 1.4
2017-Dec-15 08:57S 23°60' W 046°18'0 0.0
2017-Dec-15 08:30S 23°60' W 046°18'3 2.4
2017-Dec-15 07:04S 23°56' W 046°19'2 7.5
2017-Dec-15 06:51S 23°58' W 046°18'0 0.5
2017-Dec-15 06:29S 23°58' W 046°18'0 0.6
2017-Dec-15 05:55S 23°58' W 046°18'0 0.0
2017-Dec-15 05:23S 23°58' W 046°18'0 0.0
2017-Dec-15 04:59S 23°58' W 046°18'0 0.0
2017-Dec-15 03:55S 23°58' W 046°18'2 0.9
2017-Dec-15 02:17S 23°60' W 046°18'1 0.9
2017-Dec-15 00:57S 23°58' W 046°18'0 0.0
2017-Dec-15 00:29S 23°58' W 046°18'1 0.2
2017-Dec-14 18:14S 23°60' W 046°18'0 0.0
2017-Dec-14 17:58S 23°60' W 046°18'0 0.0
2017-Dec-14 17:28S 23°60' W 046°18'0 0.0
2017-Dec-14 17:00S 23°60' W 046°18'0 0.0
2017-Dec-14 16:30S 23°60' W 046°18'0 0.0
2017-Dec-14 15:59S 23°60' W 046°18'0 0.0
2017-Dec-14 15:00S 23°60' W 046°18'0 0.0
2017-Dec-14 14:30S 23°60' W 046°18'0 0.0
2017-Dec-14 13:51S 23°60' W 046°18'0 0.0
2017-Dec-14 13:29S 23°60' W 046°18'0 0.0
2017-Dec-14 12:53S 23°60' W 046°18'0 0.0
2017-Dec-14 12:30S 23°60' W 046°18'0 0.0
2017-Dec-14 11:51S 23°60' W 046°18'0 0.0
2017-Dec-14 11:29S 23°60' W 046°18'0 0.7
2017-Dec-14 11:00S 23°59' W 046°18'0 0.0
2017-Dec-14 01:27S 23°59' W 046°18'2 4.2
2017-Dec-14 01:00S 23°60' W 046°20'2 0.6
2017-Dec-13 21:20S 23°58' W 046°18'0 0.0
2017-Dec-13 21:00S 23°58' W 046°18'0 0.0
2017-Dec-13 20:30S 23°58' W 046°18'0 0.0
2017-Dec-13 19:58S 23°58' W 046°18'0 0.0
2017-Dec-13 19:30S 23°58' W 046°18'0 0.0
2017-Dec-13 18:54S 23°58' W 046°18'0 0.0
2017-Dec-13 18:30S 23°58' W 046°18'0 0.7
2017-Dec-13 17:59S 23°59' W 046°17'1 0.4
2017-Dec-13 15:14S 23°60' W 046°18'0 0.0
2017-Dec-13 15:00S 23°60' W 046°18'0 0.0
2017-Dec-13 14:27S 23°60' W 046°18'0 0.0
2017-Dec-13 13:56S 23°60' W 046°18'0 0.0
2017-Dec-13 13:29S 23°60' W 046°18'0 0.0
2017-Dec-13 12:58S 23°60' W 046°18'0 0.0
2017-Dec-13 12:21S 23°60' W 046°18'0 0.0
2017-Dec-13 11:58S 23°60' W 046°18'0 0.0
2017-Dec-13 11:25S 23°60' W 046°18'0 0.0
2017-Dec-13 11:00S 23°60' W 046°18'2 3.8
2017-Dec-13 10:30S 23°58' W 046°18'0 0.7
2017-Dec-13 09:51S 23°58' W 046°18'0 0.1
2017-Dec-13 09:27S 23°58' W 046°18'0 0.4
2017-Dec-13 08:54S 23°58' W 046°18'0 0.0
2017-Dec-13 08:30S 23°58' W 046°18'0 0.0
2017-Dec-13 07:05S 23°58' W 046°18'0 0.0
2017-Dec-13 07:00S 23°58' W 046°18'0 0.0
2017-Dec-13 06:29S 23°58' W 046°18'0 0.0
2017-Dec-13 05:59S 23°58' W 046°18'0 0.0
2017-Dec-13 05:30S 23°58' W 046°18'0 0.0
2017-Dec-13 03:11S 23°58' W 046°18'0 0.0
2017-Dec-13 03:00S 23°58' W 046°18'0 0.5
2017-Dec-13 02:28S 23°58' W 046°18'1 1.8
2017-Dec-13 01:51S 23°59' W 046°18'1 1.9
2017-Dec-13 01:23S 23°58' W 046°18'0 0.0
2017-Dec-13 01:00S 23°58' W 046°18'0 0.0
2017-Dec-13 00:28S 23°58' W 046°18'0 0.0
2017-Dec-13 00:00S 23°58' W 046°18'0 0.0
2017-Dec-12 23:30S 23°58' W 046°18'0 0.0
2017-Dec-12 22:54S 23°58' W 046°18'0 0.0
2017-Dec-12 21:59S 23°58' W 046°18'1 1.1
2017-Dec-12 21:30S 23°58' W 046°18'1 0.3
2017-Dec-12 16:35S 23°59' W 046°18'0 2.2
2017-Dec-12 16:27S 23°60' W 046°18'1 0.1
2017-Dec-12 04:55S 23°59' W 046°17'0 0.0
2017-Dec-12 03:52S 23°59' W 046°17'1 1.6
2017-Dec-12 03:28S 23°58' W 046°18'1 0.6
2017-Dec-12 01:52S 23°59' W 046°17'1 1.6
2017-Dec-12 01:27S 23°58' W 046°17'1 1.4
2017-Dec-12 01:00S 23°58' W 046°18'1 1.7
2017-Dec-12 00:29S 23°59' W 046°17'0 0.0
2017-Dec-12 00:00S 23°59' W 046°17'0 0.0
2017-Dec-11 23:29S 23°59' W 046°17'0 0.0
2017-Dec-11 23:00S 23°59' W 046°17'0 0.0
2017-Dec-11 22:30S 23°59' W 046°17'1 1.1
2017-Dec-11 21:44S 23°58' W 046°18'0 0.0
2017-Dec-11 15:34S 23°58' W 046°18'1 0.7
2017-Dec-11 14:15S 23°59' W 046°17'0 0.0
2017-Dec-11 13:52S 23°59' W 046°17'0 0.0
2017-Dec-11 13:30S 23°59' W 046°17'0 0.0
2017-Dec-11 11:45S 23°59' W 046°17'0 0.4
2017-Dec-11 11:17S 23°59' W 046°17'0 0.1
2017-Dec-11 10:59S 23°59' W 046°17'0 0.3
2017-Dec-11 10:20S 23°59' W 046°17'0 0.1
2017-Dec-11 09:58S 23°59' W 046°17'0 0.8
2017-Dec-11 09:30S 23°58' W 046°17'1 0.2
2017-Dec-11 05:09S 23°59' W 046°17'1 7.1
2017-Dec-11 05:00S 23°60' W 046°18'2 0.4
2017-Dec-10 23:54S 23°58' W 046°18'1 0.9
2017-Dec-10 22:39S 23°59' W 046°17'1 5.2
2017-Dec-10 22:30S 23°59' W 046°18'2 1.4
2017-Dec-10 20:47S 23°57' W 046°19'0 0.0
2017-Dec-10 19:54S 23°57' W 046°19'1 0.1
2017-Dec-10 11:28S 23°57' W 046°19'2 3.9
2017-Dec-10 10:57S 23°58' W 046°17'1 0.1
2017-Dec-10 02:09S 23°59' W 046°17'1 6.7
2017-Dec-10 02:00S 23°60' W 046°18'1 0.3
2017-Dec-10 00:13S 23°60' W 046°18'0 0.0
2017-Dec-09 23:56S 23°60' W 046°18'0 0.0
2017-Dec-09 23:30S 23°60' W 046°18'0 0.0
2017-Dec-09 22:58S 23°60' W 046°18'0 0.0
2017-Dec-09 22:09S 23°60' W 046°18'0 0.0
2017-Dec-09 21:56S 23°60' W 046°18'0 0.0
2017-Dec-09 21:21S 23°60' W 046°18'0 0.0
2017-Dec-09 21:00S 23°60' W 046°18'0 0.0
2017-Dec-09 20:29S 23°60' W 046°18'0 0.0
2017-Dec-09 19:50S 23°60' W 046°18'0 0.0
2017-Dec-09 19:30S 23°60' W 046°18'0 0.0
2017-Dec-09 18:54S 23°60' W 046°18'0 0.0
2017-Dec-09 18:27S 23°60' W 046°18'1 0.2
2017-Dec-09 15:22S 23°59' W 046°17'3 7.2
2017-Dec-09 15:00S 24°00' W 046°20'2 1.5
2017-Dec-09 13:21S 23°59' W 046°18'1 0.6
2017-Dec-09 11:55S 23°58' W 046°18'0 0.6
2017-Dec-09 11:30S 23°58' W 046°17'2 3.0
2017-Dec-09 10:59S 23°60' W 046°18'0 0.7
2017-Dec-09 10:30S 23°60' W 046°19'2 0.1
2017-Dec-08 14:15S 23°58' W 046°18'0 0.5
2017-Dec-08 13:56S 23°58' W 046°18'2 2.8
2017-Dec-08 13:17S 23°60' W 046°18'0 0.3
2017-Dec-08 12:02S 23°60' W 046°18'0 0.1
2017-Dec-08 11:58S 23°60' W 046°18'0 0.0
2017-Dec-08 11:28S 23°60' W 046°18'0 0.0
2017-Dec-08 09:09S 23°60' W 046°18'1 6.6
2017-Dec-08 08:57S 23°58' W 046°17'0 0.8
2017-Dec-08 08:30S 23°58' W 046°18'1 3.0
2017-Dec-08 08:00S 23°60' W 046°18'1 2.2
2017-Dec-08 07:30S 23°59' W 046°19'1 2.1
2017-Dec-08 06:56S 23°60' W 046°18'0 0.0
2017-Dec-08 04:25S 23°60' W 046°18'0 0.0
2017-Dec-08 03:40S 23°60' W 046°18'0 0.0
2017-Dec-08 03:27S 23°60' W 046°18'0 0.0
2017-Dec-08 03:00S 23°60' W 046°18'1 2.2
2017-Dec-08 02:25S 23°58' W 046°18'0 0.9
2017-Dec-08 02:00S 23°58' W 046°17'0 0.1
2017-Dec-07 23:33S 23°58' W 046°18'0 2.3
2017-Dec-07 23:28S 23°58' W 046°18'0 0.5
2017-Dec-07 23:00S 23°58' W 046°18'1 2.8
2017-Dec-07 22:30S 23°60' W 046°18'0 0.0
2017-Dec-07 22:00S 23°60' W 046°18'0 0.0
2017-Dec-07 21:28S 23°60' W 046°18'0 0.0
2017-Dec-07 20:59S 23°60' W 046°18'0 0.0
2017-Dec-07 20:30S 23°60' W 046°18'0 0.0
2017-Dec-07 19:58S 23°60' W 046°18'0 0.0
2017-Dec-07 19:13S 23°60' W 046°18'0 0.0
2017-Dec-07 19:00S 23°60' W 046°18'0 0.0
2017-Dec-07 17:53S 23°60' W 046°18'0 0.0
2017-Dec-07 17:21S 23°60' W 046°18'0 0.0
2017-Dec-07 16:45S 23°60' W 046°18'0 0.0
2017-Dec-07 16:27S 23°60' W 046°18'0 0.0
2017-Dec-07 15:58S 23°60' W 046°18'0 0.0
2017-Dec-07 15:27S 23°60' W 046°18'0 0.0
2017-Dec-07 14:54S 23°60' W 046°18'0 0.0
2017-Dec-07 14:28S 23°60' W 046°18'0 0.0
2017-Dec-07 14:00S 23°60' W 046°18'0 0.0
2017-Dec-07 13:28S 23°60' W 046°18'0 0.0
2017-Dec-07 12:58S 23°60' W 046°18'0 0.0
2017-Dec-07 12:30S 23°60' W 046°18'0 0.0
2017-Dec-07 12:00S 23°60' W 046°18'0 0.5
2017-Dec-07 11:30S 23°60' W 046°18'1 0.1
2017-Dec-07 05:19S 23°59' W 046°17'1 1.8
2017-Dec-07 04:58S 23°60' W 046°18'0 0.0
2017-Dec-07 04:20S 23°60' W 046°18'0 0.0
2017-Dec-07 03:54S 23°60' W 046°18'0 0.0
2017-Dec-07 02:54S 23°60' W 046°18'0 0.0
2017-Dec-07 02:24S 23°60' W 046°18'0 0.0
2017-Dec-07 01:56S 23°60' W 046°18'0 0.0
2017-Dec-07 01:26S 23°60' W 046°18'0 0.0
2017-Dec-07 00:58S 23°60' W 046°18'0 0.0
2017-Dec-06 23:33S 23°60' W 046°18'1 5.1
2017-Dec-06 23:27S 23°60' W 046°18'  

Dump ship's entire track history